Time;durP1;ratioP1;P1;durP2;ratioP2;P2;SDS_P1;SDS_P2;PMS_P1;PMS_P2;Temp;Humidity;BMP_temperature;BMP_pressure;BME280_temperature;BME280_humidity;BME280_pressure;Samples;Min_cycle;Max_cycle;Signal;HPM_P1;HPM_P2
2022/07/31 00:01:57;;;;;;;15.75;13.75;;;17.30;99.90;;;;;;5033093;28;20026;-62
2022/07/31 00:04:23;;;;;;;15.25;13.02;;;17.20;99.90;;;;;;5039561;28;20025;-62
2022/07/31 00:06:49;;;;;;;14.07;12.50;;;17.20;99.90;;;;;;5016954;28;20061;-62
2022/07/31 00:09:15;;;;;;;15.85;14.15;;;17.20;99.90;;;;;;5035051;28;20032;-62
2022/07/31 00:11:42;;;;;;;16.05;14.35;;;17.20;99.90;;;;;;5032852;28;20029;-62
2022/07/31 00:14:08;;;;;;;14.60;13.05;;;17.20;99.90;;;;;;5036437;28;20372;-62
2022/07/31 00:16:34;;;;;;;15.57;14.02;;;17.20;99.90;;;;;;5037643;28;20036;-62
2022/07/31 00:19:00;;;;;;;15.93;13.65;;;17.20;99.90;;;;;;5042303;28;20013;-62
2022/07/31 00:21:25;;;;;;;19.60;13.90;;;17.20;99.90;;;;;;5028897;28;20041;-62
2022/07/31 00:23:51;;;;;;;15.82;13.07;;;17.20;99.90;;;;;;5031990;28;20037;-62
2022/07/31 00:26:16;;;;;;;13.88;12.35;;;17.10;99.90;;;;;;5031138;28;20022;-62
2022/07/31 00:28:42;;;;;;;18.38;13.45;;;17.10;99.90;;;;;;5031775;28;20049;-62
2022/07/31 00:31:07;;;;;;;16.50;13.48;;;17.10;99.90;;;;;;5031468;28;20029;-63
2022/07/31 00:33:33;;;;;;;15.18;13.05;;;17.10;99.90;;;;;;5029629;28;20071;-62
2022/07/31 00:35:59;;;;;;;16.73;13.48;;;17.10;99.90;;;;;;5014192;28;20022;-63
2022/07/31 00:38:24;;;;;;;14.40;12.90;;;17.00;99.90;;;;;;5031596;28;20049;-63
2022/07/31 00:40:50;;;;;;;14.23;12.73;;;17.00;99.90;;;;;;5030923;28;20022;-63
2022/07/31 00:43:19;;;;;;;13.85;12.43;;;17.00;99.90;;;;;;5030914;28;20025;-62
2022/07/31 00:45:45;;;;;;;15.40;13.15;;;17.00;99.90;;;;;;5030774;28;20569;-61
2022/07/31 00:48:11;;;;;;;14.38;12.88;;;17.00;99.90;;;;;;5030088;28;20056;-62
2022/07/31 00:50:37;;;;;;;16.70;14.52;;;16.90;99.90;;;;;;5031247;28;20724;-62
2022/07/31 00:53:03;;;;;;;15.52;13.90;;;16.90;99.90;;;;;;5030565;28;20423;-62
2022/07/31 00:55:29;;;;;;;15.50;12.80;;;16.90;99.90;;;;;;5024101;28;20032;-62
2022/07/31 00:57:54;;;;;;;17.45;14.07;;;16.80;99.90;;;;;;5030083;28;20041;-62
2022/07/31 01:00:21;;;;;;;17.40;15.52;;;16.90;99.90;;;;;;5027822;28;20026;-60
2022/07/31 01:02:47;;;;;;;18.40;15.13;;;16.80;99.90;;;;;;5027040;28;20441;-62
2022/07/31 01:05:13;;;;;;;16.98;14.13;;;16.80;99.90;;;;;;5030377;28;20026;-62
2022/07/31 01:07:38;;;;;;;16.38;14.38;;;16.70;99.90;;;;;;5031053;28;20041;-62
2022/07/31 01:10:08;;;;;;;16.05;12.23;;;16.70;99.90;;;;;;5013050;28;20033;-61
2022/07/31 01:12:46;;;;;;;16.63;12.25;;;16.70;99.90;;;;;;5030315;28;20030;-63
2022/07/31 01:15:14;;;;;;;20.85;15.70;;;16.70;99.90;;;;;;5030611;28;20100;-62
2022/07/31 01:17:42;;;;;;;17.65;13.68;;;16.70;99.90;;;;;;5025331;28;20101;-61
2022/07/31 01:20:08;;;;;;;14.85;13.35;;;16.70;99.90;;;;;;5031068;28;20018;-61
2022/07/31 01:22:39;;;;;;;17.00;13.98;;;16.70;99.90;;;;;;5012296;28;20025;-61
2022/07/31 01:25:19;;;;;;;13.63;11.75;;;16.60;99.90;;;;;;5030420;28;20387;-62
2022/07/31 01:28:22;;;;;;;16.42;14.80;;;16.60;99.90;;;;;;5030937;28;20029;-62
2022/07/31 01:30:53;;;;;;;17.85;13.32;;;16.50;99.90;;;;;;5029726;28;20029;-63
2022/07/31 01:33:24;;;;;;;16.58;14.18;;;16.50;99.90;;;;;;5027221;28;20140;-62
2022/07/31 01:35:57;;;;;;;16.55;14.65;;;16.50;99.90;;;;;;5029826;28;20388;-62
2022/07/31 01:38:30;;;;;;;15.75;13.77;;;16.50;99.90;;;;;;5030185;28;20024;-62
2022/07/31 01:41:01;;;;;;;16.17;13.80;;;16.50;99.90;;;;;;5030702;28;20025;-61
2022/07/31 01:43:37;;;;;;;14.43;11.27;;;16.40;99.90;;;;;;5011521;28;20075;-62
2022/07/31 01:46:04;;;;;;;14.65;13.10;;;16.30;99.90;;;;;;5028259;28;20030;-61
2022/07/31 01:48:35;;;;;;;18.25;14.07;;;16.40;99.90;;;;;;5030622;28;20475;-61
2022/07/31 01:51:02;;;;;;;16.33;14.43;;;16.30;99.90;;;;;;5029509;28;20177;-63
2022/07/31 01:53:31;;;;;;;14.65;12.93;;;16.30;99.90;;;;;;5029209;28;20104;-61
2022/07/31 01:55:58;;;;;;;15.13;13.35;;;16.20;99.90;;;;;;5090771;22;20041;-62
2022/07/31 01:58:25;;;;;;;14.40;13.00;;;16.20;99.90;;;;;;5012238;28;20104;-61
2022/07/31 02:00:55;;;;;;;14.38;11.88;;;16.10;99.90;;;;;;5028947;28;20033;-63
2022/07/31 02:03:22;;;;;;;20.77;14.25;;;16.10;99.90;;;;;;5028062;28;20601;-60
2022/07/31 02:05:49;;;;;;;16.13;13.63;;;16.10;99.90;;;;;;5029740;28;20025;-61
2022/07/31 02:08:17;;;;;;;18.30;14.25;;;16.00;99.90;;;;;;5028444;28;20082;-60
2022/07/31 02:10:44;;;;;;;14.02;12.60;;;16.00;99.90;;;;;;5029102;28;20029;-59
2022/07/31 02:13:11;;;;;;;15.77;14.20;;;15.90;99.90;;;;;;5028782;28;20060;-60
2022/07/31 02:15:38;;;;;;;16.20;14.07;;;15.90;99.90;;;;;;5011394;28;20101;-59
2022/07/31 02:18:05;;;;;;;21.33;16.00;;;15.90;99.90;;;;;;5028978;28;20029;-60
2022/07/31 02:20:32;;;;;;;18.42;15.30;;;15.90;99.90;;;;;;5029903;28;20018;-60
2022/07/31 02:22:58;;;;;;;17.13;15.32;;;15.80;99.90;;;;;;5028308;28;20026;-58
2022/07/31 02:25:24;;;;;;;14.88;13.25;;;15.80;99.90;;;;;;5022629;28;20021;-60
2022/07/31 02:27:51;;;;;;;19.58;16.70;;;15.80;99.90;;;;;;5011764;28;20053;-61
2022/07/31 02:30:17;;;;;;;18.25;15.05;;;15.80;99.90;;;;;;5010670;28;20030;-58
2022/07/31 02:32:47;;;;;;;18.40;15.45;;;15.70;99.90;;;;;;5022964;28;20032;-57
2022/07/31 02:35:16;;;;;;;19.33;17.02;;;15.70;99.90;;;;;;5029219;28;20028;-58
2022/07/31 02:37:43;;;;;;;20.73;16.00;;;15.70;99.90;;;;;;5010675;28;20137;-59
2022/07/31 02:40:11;;;;;;;18.42;16.55;;;15.60;99.90;;;;;;5029004;28;20036;-59
2022/07/31 02:42:38;;;;;;;16.10;14.18;;;15.60;99.90;;;;;;5028227;28;20025;-57
2022/07/31 02:45:08;;;;;;;16.42;14.70;;;15.60;99.90;;;;;;5027805;28;20021;-60
2022/07/31 02:47:35;;;;;;;20.33;18.00;;;15.60;99.90;;;;;;5011070;28;20052;-61
2022/07/31 02:50:03;;;;;;;16.65;14.98;;;15.50;99.90;;;;;;4995018;28;20112;-60
2022/07/31 02:52:29;;;;;;;18.27;16.25;;;15.60;99.90;;;;;;5027433;28;20091;-60
2022/07/31 02:54:57;;;;;;;17.55;15.80;;;15.50;99.90;;;;;;5028327;28;20064;-61
2022/07/31 02:57:23;;;;;;;18.65;15.23;;;15.40;99.90;;;;;;5029204;28;20717;-62
2022/07/31 02:59:48;;;;;;;17.90;15.63;;;15.40;99.90;;;;;;5028162;28;20036;-58
2022/07/31 03:02:14;;;;;;;17.65;15.85;;;15.40;99.90;;;;;;5026890;28;20021;-57
2022/07/31 03:04:40;;;;;;;15.55;13.95;;;15.40;99.90;;;;;;5028360;28;20473;-60
2022/07/31 03:07:06;;;;;;;17.75;15.95;;;15.40;99.90;;;;;;5028355;28;20568;-58
2022/07/31 03:09:31;;;;;;;14.77;13.27;;;15.30;99.90;;;;;;5028716;28;20065;-57
2022/07/31 03:11:57;;;;;;;17.27;13.90;;;15.30;99.90;;;;;;5027495;28;20364;-59
2022/07/31 03:14:24;;;;;;;14.73;13.23;;;15.30;99.90;;;;;;5010155;28;20124;-56
2022/07/31 03:16:51;;;;;;;17.73;15.70;;;15.20;99.90;;;;;;5028098;28;20620;-60
2022/07/31 03:19:19;;;;;;;16.65;14.18;;;15.20;99.90;;;;;;5028363;28;20033;-57
2022/07/31 03:21:45;;;;;;;19.38;15.90;;;15.10;99.90;;;;;;5026926;28;20025;-58
2022/07/31 03:24:11;;;;;;;17.92;16.00;;;15.10;99.90;;;;;;5028185;28;20021;-60
2022/07/31 03:26:37;;;;;;;18.15;15.98;;;15.10;99.90;;;;;;5010281;28;20041;-58
2022/07/31 03:29:03;;;;;;;22.13;17.92;;;15.00;99.90;;;;;;5027673;28;20017;-61
2022/07/31 03:31:29;;;;;;;18.45;16.55;;;15.00;99.90;;;;;;5026766;28;20045;-59
2022/07/31 03:33:55;;;;;;;22.55;16.88;;;15.00;99.90;;;;;;5027669;28;20029;-59
2022/07/31 03:36:21;;;;;;;21.02;17.15;;;14.90;99.90;;;;;;5027768;28;20029;-57
2022/07/31 03:38:47;;;;;;;21.05;16.00;;;14.90;99.90;;;;;;5010567;28;20028;-58
2022/07/31 03:41:12;;;;;;;17.13;15.43;;;14.90;99.90;;;;;;5027460;28;20022;-60
2022/07/31 03:43:40;;;;;;;16.48;14.77;;;14.90;99.90;;;;;;5027780;28;20155;-62
2022/07/31 03:46:06;;;;;;;18.88;15.57;;;14.90;99.90;;;;;;5027842;28;20052;-57
2022/07/31 03:48:32;;;;;;;19.20;16.15;;;14.90;99.90;;;;;;5010429;28;20045;-59
2022/07/31 03:50:58;;;;;;;18.38;16.08;;;14.80;99.90;;;;;;5027810;28;20053;-57
2022/07/31 03:53:24;;;;;;;21.00;16.35;;;14.80;99.90;;;;;;5026846;28;20025;-57
2022/07/31 03:55:52;;;;;;;17.88;15.85;;;14.80;99.90;;;;;;5009824;28;20034;-56
2022/07/31 03:58:18;;;;;;;16.75;14.85;;;14.80;99.90;;;;;;5010401;28;20040;-60
2022/07/31 04:00:44;;;;;;;18.33;16.40;;;14.80;99.90;;;;;;5027310;28;20025;-57
2022/07/31 04:03:11;;;;;;;19.40;16.33;;;14.70;99.90;;;;;;5026176;28;20396;-58
2022/07/31 04:05:38;;;;;;;19.33;16.35;;;14.80;99.90;;;;;;5027634;28;20768;-57
2022/07/31 04:08:05;;;;;;;18.83;16.33;;;14.70;99.90;;;;;;5009450;28;20038;-58
2022/07/31 04:10:31;;;;;;;17.70;15.80;;;14.80;99.90;;;;;;5027767;28;20439;-58
2022/07/31 04:12:56;;;;;;;18.80;16.02;;;14.70;99.90;;;;;;5009489;28;20188;-58
2022/07/31 04:15:22;;;;;;;18.20;16.27;;;14.80;99.90;;;;;;5027251;28;20399;-54
2022/07/31 04:17:48;;;;;;;19.27;16.83;;;14.80;99.90;;;;;;5027738;28;20045;-57
2022/07/31 04:20:14;;;;;;;16.08;14.48;;;14.80;99.90;;;;;;5009925;28;20025;-58
2022/07/31 04:22:40;;;;;;;18.88;16.98;;;14.80;99.90;;;;;;5008961;28;20022;-61
2022/07/31 04:25:06;;;;;;;17.45;15.38;;;14.80;99.90;;;;;;5027640;28;20034;-57
2022/07/31 04:27:34;;;;;;;16.27;14.35;;;14.80;99.90;;;;;;5027541;28;20065;-60
2022/07/31 04:30:00;;;;;;;18.17;16.17;;;14.80;99.90;;;;;;5027494;28;20113;-58
2022/07/31 04:32:26;;;;;;;14.57;13.18;;;14.80;99.90;;;;;;5025353;28;20113;-59
2022/07/31 04:34:51;;;;;;;16.60;14.00;;;14.80;99.90;;;;;;5027783;28;20408;-58
2022/07/31 04:37:17;;;;;;;16.50;14.63;;;14.80;99.90;;;;;;5012661;28;20025;-59
2022/07/31 04:39:43;;;;;;;16.45;13.95;;;14.80;99.90;;;;;;5031165;28;20025;-56
2022/07/31 04:42:08;;;;;;;17.33;14.40;;;14.90;99.90;;;;;;5030556;28;20057;-56
2022/07/31 04:44:34;;;;;;;19.60;16.27;;;14.90;99.90;;;;;;5012746;28;20066;-57
2022/07/31 04:47:01;;;;;;;18.90;16.50;;;14.90;99.90;;;;;;5013336;28;20035;-58
2022/07/31 04:49:27;;;;;;;21.52;17.08;;;15.00;99.90;;;;;;5031141;28;20030;-60
2022/07/31 04:51:52;;;;;;;21.42;18.15;;;15.20;99.90;;;;;;5011880;28;20048;-59
2022/07/31 04:54:18;;;;;;;23.70;18.33;;;15.30;99.90;;;;;;5013249;28;20029;-62
2022/07/31 04:56:46;;;;;;;20.90;18.15;;;15.40;99.90;;;;;;5030921;28;20030;-54
2022/07/31 04:59:14;;;;;;;23.52;17.98;;;15.40;99.90;;;;;;5030400;28;20518;-56
2022/07/31 05:01:41;;;;;;;25.90;19.23;;;15.50;99.90;;;;;;5028673;28;20026;-60
2022/07/31 05:04:08;;;;;;;18.52;16.63;;;15.50;99.90;;;;;;5030947;28;20029;-58
2022/07/31 05:06:42;;;;;;;19.70;17.65;;;15.60;99.90;;;;;;5030132;28;20021;-59
2022/07/31 05:09:11;;;;;;;25.13;20.33;;;15.60;99.90;;;;;;5012591;28;20036;-57
2022/07/31 05:11:38;;;;;;;19.25;16.98;;;15.70;99.90;;;;;;5030142;28;20029;-55
2022/07/31 05:14:06;;;;;;;24.25;18.17;;;15.70;99.90;;;;;;5030333;28;20373;-60
2022/07/31 05:16:33;;;;;;;19.35;17.35;;;15.80;99.90;;;;;;5031468;28;20013;-59
2022/07/31 05:18:59;;;;;;;22.13;19.45;;;15.90;99.90;;;;;;5012845;28;20444;-59
2022/07/31 05:21:25;;;;;;;22.50;19.20;;;15.90;99.90;;;;;;5011181;28;20025;-59
2022/07/31 05:23:52;;;;;;;20.42;18.00;;;16.00;99.90;;;;;;5030372;28;20447;-61
2022/07/31 05:26:19;;;;;;;23.25;19.67;;;16.10;99.90;;;;;;5030656;28;20018;-60
2022/07/31 05:28:45;;;;;;;23.42;20.05;;;16.20;99.90;;;;;;5029765;28;20025;-59
2022/07/31 05:31:11;;;;;;;22.15;19.67;;;16.30;99.90;;;;;;5029929;28;20550;-61
2022/07/31 05:33:37;;;;;;;24.65;19.25;;;16.30;99.90;;;;;;5029200;28;20217;-58
2022/07/31 05:36:03;;;;;;;20.50;17.48;;;16.40;99.90;;;;;;5012231;28;20018;-59
2022/07/31 05:38:29;;;;;;;20.33;17.80;;;16.40;99.90;;;;;;5012921;28;20018;-59
2022/07/31 05:40:54;;;;;;;20.15;16.67;;;16.40;99.90;;;;;;5030281;28;20032;-59
2022/07/31 05:43:20;;;;;;;19.63;17.63;;;16.50;99.90;;;;;;5029130;28;20024;-60
2022/07/31 05:45:46;;;;;;;20.45;18.17;;;16.50;99.90;;;;;;5012045;28;20542;-62
2022/07/31 05:48:15;;;;;;;20.75;17.77;;;16.50;99.90;;;;;;5012381;28;20045;-58
2022/07/31 05:50:42;;;;;;;20.95;17.42;;;16.50;99.90;;;;;;5029535;28;20017;-61
2022/07/31 05:53:11;;;;;;;19.48;16.90;;;16.50;99.90;;;;;;5029622;28;20025;-60
2022/07/31 05:55:38;;;;;;;16.13;14.48;;;16.50;99.90;;;;;;5029711;28;20444;-62
2022/07/31 05:58:04;;;;;;;23.27;17.00;;;16.50;99.90;;;;;;5028582;28;20009;-61
2022/07/31 06:00:30;;;;;;;16.75;15.05;;;16.50;99.90;;;;;;5029316;28;20539;-62
2022/07/31 06:02:56;;;;;;;20.45;16.23;;;16.60;99.90;;;;;;5009771;28;20114;-62
2022/07/31 06:05:22;;;;;;;20.35;16.08;;;16.70;99.90;;;;;;5029458;28;20061;-62
2022/07/31 06:07:50;;;;;;;21.10;17.00;;;16.80;99.90;;;;;;5029727;28;20021;-61
2022/07/31 06:10:15;;;;;;;20.98;16.77;;;16.90;99.90;;;;;;5011924;28;20032;-62
2022/07/31 06:12:41;;;;;;;22.42;15.30;;;17.00;99.90;;;;;;5028759;28;20030;-61
2022/07/31 06:15:07;;;;;;;22.15;17.00;;;17.10;99.90;;;;;;5011648;28;20068;-62
2022/07/31 06:17:33;;;;;;;17.48;15.70;;;17.30;99.90;;;;;;5029439;28;20025;-62
2022/07/31 06:19:58;;;;;;;17.77;15.98;;;17.50;99.90;;;;;;5029203;28;20033;-61
2022/07/31 06:22:24;;;;;;;17.42;15.20;;;17.60;99.90;;;;;;5028599;28;20028;-62
2022/07/31 06:24:50;;;;;;;15.60;13.93;;;17.70;99.90;;;;;;5029150;28;20435;-58
2022/07/31 06:27:16;;;;;;;18.25;14.32;;;17.80;99.90;;;;;;5028858;28;20026;-61
2022/07/31 06:29:41;;;;;;;16.02;13.65;;;17.90;99.90;;;;;;5011252;28;20120;-62
2022/07/31 06:32:07;;;;;;;14.95;13.02;;;18.00;99.90;;;;;;5026840;28;20056;-61
2022/07/31 06:34:33;;;;;;;14.55;11.77;;;18.10;99.90;;;;;;5028664;28;20025;-61
2022/07/31 06:36:59;;;;;;;13.80;11.38;;;18.20;99.90;;;;;;5029322;28;20040;-61
2022/07/31 06:39:24;;;;;;;16.40;11.48;;;18.40;99.90;;;;;;5028156;28;20022;-62
2022/07/31 06:41:51;;;;;;;18.25;11.40;;;18.60;99.90;;;;;;5028261;28;20049;-60
2022/07/31 06:44:18;;;;;;;13.40;10.35;;;18.80;99.90;;;;;;5010868;28;20029;-60
2022/07/31 06:46:48;;;;;;;10.48;6.80;;;19.00;99.90;;;;;;5028980;28;20021;-61
2022/07/31 06:49:14;;;;;;;8.02;5.88;;;19.20;99.90;;;;;;5028698;28;20395;-60
2022/07/31 06:51:40;;;;;;;7.18;5.65;;;19.30;99.90;;;;;;5010661;28;20116;-59
2022/07/31 06:54:08;;;;;;;9.98;6.30;;;19.50;99.90;;;;;;5028302;28;20060;-58
2022/07/31 06:56:34;;;;;;;11.65;6.40;;;19.60;99.90;;;;;;5028434;28;20104;-61
2022/07/31 06:59:01;;;;;;;6.40;4.88;;;19.60;99.90;;;;;;5009339;28;20026;-60
2022/07/31 07:01:27;;;;;;;6.85;5.45;;;19.60;99.90;;;;;;5018355;28;20056;-62
2022/07/31 07:03:53;;;;;;;8.57;5.47;;;19.50;99.90;;;;;;5027872;28;20455;-60
2022/07/31 07:06:18;;;;;;;4.93;4.38;;;19.50;99.90;;;;;;5028570;28;20029;-62
2022/07/31 07:08:44;;;;;;;5.80;4.22;;;19.50;99.90;;;;;;5028796;28;20032;-59
2022/07/31 07:11:10;;;;;;;6.03;4.10;;;19.60;99.90;;;;;;5027721;28;20014;-61
2022/07/31 07:13:36;;;;;;;4.97;3.78;;;19.70;99.90;;;;;;5028685;28;20021;-61
2022/07/31 07:16:01;;;;;;;5.47;4.00;;;19.70;99.90;;;;;;5028088;28;20032;-60
2022/07/31 07:18:27;;;;;;;4.55;4.15;;;19.80;99.90;;;;;;5027805;28;20104;-63
2022/07/31 07:20:52;;;;;;;5.22;4.57;;;19.80;99.90;;;;;;5028142;28;20111;-61
2022/07/31 07:23:20;;;;;;;5.13;4.63;;;19.90;99.90;;;;;;5009825;28;20057;-60
2022/07/31 07:25:45;;;;;;;5.47;4.82;;;19.90;99.90;;;;;;5028423;28;20033;-61
2022/07/31 07:28:11;;;;;;;5.43;4.20;;;19.90;99.90;;;;;;5028124;28;20027;-62
2022/07/31 07:30:36;;;;;;;4.10;3.70;;;19.90;99.90;;;;;;5010691;28;20574;-61
2022/07/31 07:33:04;;;;;;;3.50;2.92;;;20.00;99.90;;;;;;5008683;28;20029;-59
2022/07/31 07:35:30;;;;;;;6.95;3.70;;;20.00;99.90;;;;;;5027698;28;20096;-62
2022/07/31 07:37:56;;;;;;;8.00;4.28;;;20.00;99.90;;;;;;5027722;28;20646;-62
2022/07/31 07:40:23;;;;;;;7.00;4.55;;;20.10;99.90;;;;;;5028401;28;20021;-61
2022/07/31 07:42:48;;;;;;;5.28;3.88;;;20.20;99.90;;;;;;5026509;28;20108;-62
2022/07/31 07:45:14;;;;;;;4.05;3.60;;;20.30;99.90;;;;;;5027893;28;20138;-59
2022/07/31 07:47:40;;;;;;;4.10;3.58;;;20.40;99.90;;;;;;5028088;28;20434;-62
2022/07/31 07:50:07;;;;;;;3.17;2.72;;;20.40;99.90;;;;;;5027878;28;20025;-62
2022/07/31 07:52:33;;;;;;;5.32;3.15;;;20.50;99.90;;;;;;5025956;28;20059;-61
2022/07/31 07:54:59;;;;;;;3.47;2.72;;;20.60;99.90;;;;;;5028291;28;20112;-60
2022/07/31 07:57:25;;;;;;;3.60;2.88;;;20.70;99.90;;;;;;5050490;22;20116;-65
2022/07/31 07:59:50;;;;;;;3.00;2.08;;;20.80;99.90;;;;;;5028350;28;20535;-65
2022/07/31 08:02:16;;;;;;;5.13;2.70;;;20.90;99.90;;;;;;5028010;28;20021;-64
2022/07/31 08:04:41;;;;;;;3.97;2.38;;;21.00;99.90;;;;;;5028233;28;20025;-65
2022/07/31 08:07:07;;;;;;;3.20;2.63;;;21.00;99.90;;;;;;5028247;28;20037;-65
2022/07/31 08:09:34;;;;;;;4.07;2.10;;;21.10;99.90;;;;;;5030090;28;20032;-64
2022/07/31 08:12:00;;;;;;;4.25;2.42;;;21.20;99.90;;;;;;5031181;28;20105;-64
2022/07/31 08:14:26;;;;;;;3.47;2.25;;;21.30;99.90;;;;;;5032311;28;20079;-64
2022/07/31 08:16:52;;;;;;;4.65;2.67;;;21.40;99.90;;;;;;5031967;28;20021;-62
2022/07/31 08:19:18;;;;;;;3.72;1.90;;;21.40;99.90;;;;;;5030895;28;20017;-61
2022/07/31 08:21:43;;;;;;;2.88;2.40;;;21.50;99.90;;;;;;5031446;28;20607;-63
2022/07/31 08:24:12;;;;;;;3.75;2.72;;;21.60;99.90;;;;;;5014391;28;20025;-62
2022/07/31 08:29:22;;;;;;;4.22;2.28;;;21.70;99.90;;;;;;5025082;28;20569;-63
2022/07/31 08:31:48;;;;;;;5.53;2.70;;;21.80;99.90;;;;;;5011202;28;20022;-62
2022/07/31 08:34:13;;;;;;;3.00;2.63;;;21.80;99.90;;;;;;5013375;28;20040;-63
2022/07/31 08:36:39;;;;;;;3.30;2.30;;;21.80;99.90;;;;;;5014014;28;20034;-62
2022/07/31 08:39:05;;;;;;;5.82;2.90;;;21.80;99.90;;;;;;5031781;28;20035;-64
2022/07/31 08:41:37;;;;;;;3.95;2.72;;;21.80;99.90;;;;;;5030441;28;20022;-63
2022/07/31 08:44:06;;;;;;;3.25;2.92;;;21.80;99.90;;;;;;5031399;28;20034;-63
2022/07/31 08:46:36;;;;;;;4.40;3.03;;;21.80;99.90;;;;;;5031515;28;20026;-63
2022/07/31 08:49:02;;;;;;;5.35;2.92;;;21.80;99.90;;;;;;5031050;28;20040;-64
2022/07/31 08:51:30;;;;;;;4.10;2.60;;;21.80;99.90;;;;;;5013033;28;20664;-63
2022/07/31 08:53:56;;;;;;;3.83;2.53;;;21.90;99.90;;;;;;5030108;28;20018;-63
2022/07/31 08:56:24;;;;;;;6.30;3.00;;;21.80;99.90;;;;;;5030792;28;20132;-63
2022/07/31 08:58:50;;;;;;;6.57;2.75;;;21.80;99.90;;;;;;5031614;28;20018;-64
2022/07/31 09:01:16;;;;;;;6.00;3.20;;;21.90;99.90;;;;;;5030191;28;20067;-63
2022/07/31 09:03:42;;;;;;;4.18;2.97;;;21.90;99.90;;;;;;5030967;28;20438;-63
2022/07/31 09:06:07;;;;;;;3.17;2.50;;;22.00;99.90;;;;;;5030858;28;20056;-63
2022/07/31 09:08:35;;;;;;;4.70;2.92;;;22.10;99.90;;;;;;5013531;28;20576;-63
2022/07/31 09:11:06;;;;;;;3.08;2.85;;;22.10;99.90;;;;;;5031143;28;20056;-67
2022/07/31 09:13:36;;;;;;;2.95;2.60;;;22.10;99.90;;;;;;5007081;28;20025;-63
2022/07/31 09:16:02;;;;;;;2.00;1.90;;;22.20;99.90;;;;;;5031253;28;20079;-62
2022/07/31 09:18:28;;;;;;;2.30;1.80;;;22.20;99.90;;;;;;5030258;28;20139;-64
2022/07/31 09:20:59;;;;;;;3.10;2.08;;;22.20;99.90;;;;;;5029603;28;20488;-63
2022/07/31 09:23:26;;;;;;;6.32;2.20;;;22.20;99.90;;;;;;5029628;28;20029;-64
2022/07/31 09:25:55;;;;;;;2.72;2.28;;;22.10;99.90;;;;;;5030034;28;20025;-64
2022/07/31 09:28:37;;;;;;;2.15;1.98;;;22.10;99.90;;;;;;5027792;28;20021;-65
2022/07/31 09:31:05;;;;;;;2.05;1.85;;;22.10;99.90;;;;;;5027450;28;20392;-64
2022/07/31 09:33:32;;;;;;;2.70;1.88;;;22.00;99.90;;;;;;5028759;28;20059;-63
2022/07/31 09:35:58;;;;;;;3.10;2.13;;;22.00;99.90;;;;;;5030076;28;20033;-64
2022/07/31 09:38:39;;;;;;;2.53;2.25;;;21.90;99.90;;;;;;5029186;28;20038;-63
2022/07/31 09:41:17;;;;;;;2.70;2.22;;;21.90;99.90;;;;;;5011531;28;20021;-64
2022/07/31 09:43:52;;;;;;;2.88;2.33;;;21.90;99.90;;;;;;5030382;28;20024;-64
2022/07/31 09:46:18;;;;;;;2.65;2.00;;;21.90;99.90;;;;;;5028483;28;20067;-64
2022/07/31 09:48:50;;;;;;;2.22;2.03;;;22.00;99.90;;;;;;5011348;28;20444;-64
2022/07/31 09:51:16;;;;;;;3.78;2.28;;;21.90;99.90;;;;;;5028702;28;20021;-64
2022/07/31 09:53:50;;;;;;;2.63;1.67;;;22.00;99.90;;;;;;5030393;28;20079;-63
2022/07/31 09:56:16;;;;;;;3.22;2.20;;;22.00;99.90;;;;;;5027913;28;20033;-63
2022/07/31 09:58:42;;;;;;;4.82;1.98;;;22.00;99.90;;;;;;5028515;28;20034;-63
2022/07/31 10:01:11;;;;;;;3.33;1.85;;;22.00;99.90;;;;;;5028916;28;20033;-63
2022/07/31 10:03:38;;;;;;;5.03;2.28;;;22.10;99.90;;;;;;5030116;28;20090;-63
2022/07/31 10:06:10;;;;;;;2.58;2.03;;;22.40;99.90;;;;;;5029799;28;20030;-63
2022/07/31 10:08:37;;;;;;;3.53;1.63;;;22.60;99.90;;;;;;5029162;28;20753;-63
2022/07/31 10:11:04;;;;;;;1.83;1.73;;;22.90;99.90;;;;;;5030092;28;20028;-64
2022/07/31 10:13:32;;;;;;;2.03;1.77;;;23.20;99.90;;;;;;5025731;28;20041;-64
2022/07/31 10:16:00;;;;;;;2.80;2.17;;;23.60;99.90;;;;;;5029431;28;20384;-63
2022/07/31 10:18:28;;;;;;;5.80;2.45;;;23.80;99.90;;;;;;5011305;28;20038;-64
2022/07/31 10:20:55;;;;;;;2.97;1.60;;;23.90;99.90;;;;;;5011725;28;20032;-64
2022/07/31 10:23:26;;;;;;;1.60;1.50;;;23.90;99.10;;;;;;5028407;28;20020;-64
2022/07/31 10:26:01;;;;;;;4.82;2.40;;;23.90;99.80;;;;;;5027070;28;20029;-63
2022/07/31 10:28:28;;;;;;;2.22;1.83;;;24.10;99.30;;;;;;5012057;28;20476;-64
2022/07/31 10:30:54;;;;;;;2.33;2.00;;;24.20;99.20;;;;;;5028757;28;20060;-64
2022/07/31 10:33:20;;;;;;;1.65;1.50;;;24.20;98.30;;;;;;5010272;28;20030;-63
2022/07/31 10:36:07;;;;;;;3.53;1.65;;;24.20;98.00;;;;;;5011413;28;20025;-64
2022/07/31 10:38:42;;;;;;;5.22;1.55;;;24.30;97.10;;;;;;5025969;28;20064;-64
2022/07/31 10:41:16;;;;;;;1.58;1.48;;;24.50;98.30;;;;;;5029291;28;20021;-64
2022/07/31 10:43:49;;;;;;;5.80;2.13;;;24.60;96.70;;;;;;5029677;28;20511;-64
2022/07/31 10:46:29;;;;;;;7.47;1.73;;;24.60;95.80;;;;;;5028147;28;20065;-64
2022/07/31 10:48:57;;;;;;;2.78;1.60;;;24.60;96.20;;;;;;5011471;28;20024;-64
2022/07/31 10:51:23;;;;;;;4.30;1.40;;;24.70;96.00;;;;;;5006637;28;20384;-64
2022/07/31 10:53:53;;;;;;;3.78;1.50;;;24.90;95.60;;;;;;5028969;28;20072;-65
2022/07/31 10:56:19;;;;;;;3.10;1.35;;;25.00;95.50;;;;;;5028289;28;20021;-64
2022/07/31 10:58:50;;;;;;;2.85;1.40;;;25.10;95.90;;;;;;5026308;28;20028;-64
2022/07/31 11:01:16;;;;;;;1.50;1.40;;;25.20;95.30;;;;;;5028131;28;20032;-64
2022/07/31 11:03:45;;;;;;;1.83;1.30;;;25.10;96.00;;;;;;5029325;28;20437;-65
2022/07/31 11:06:14;;;;;;;2.28;1.60;;;25.10;95.60;;;;;;5028903;28;20025;-65
2022/07/31 11:08:51;;;;;;;2.60;1.35;;;25.20;95.10;;;;;;5029051;28;20021;-64
2022/07/31 11:11:29;;;;;;;2.47;1.55;;;25.20;95.00;;;;;;5023972;28;20139;-65
2022/07/31 11:13:55;;;;;;;2.60;1.70;;;25.20;94.20;;;;;;5028824;28;20075;-63
2022/07/31 11:16:21;;;;;;;3.03;1.98;;;25.40;93.40;;;;;;5028345;28;20021;-64
2022/07/31 11:19:05;;;;;;;2.95;1.98;;;25.40;94.20;;;;;;5028795;28;20590;-64
2022/07/31 11:21:41;;;;;;;3.20;1.95;;;25.50;93.90;;;;;;5024424;28;20026;-64
2022/07/31 11:24:17;;;;;;;2.60;1.70;;;25.40;93.40;;;;;;5027857;28;20030;-65
2022/07/31 11:26:54;;;;;;;3.13;1.80;;;25.50;93.70;;;;;;5028817;28;20021;-65
2022/07/31 11:29:33;;;;;;;1.60;1.48;;;25.60;93.90;;;;;;5024820;28;20028;-66
2022/07/31 11:32:04;;;;;;;2.75;2.00;;;25.70;93.70;;;;;;5027519;28;20427;-64
2022/07/31 11:34:52;;;;;;;2.47;1.50;;;25.70;92.50;;;;;;5028709;28;20033;-63
2022/07/31 11:37:29;;;;;;;4.40;1.80;;;25.80;93.30;;;;;;5024269;28;20091;-65
2022/07/31 11:39:55;;;;;;;1.65;1.33;;;25.80;93.10;;;;;;5027823;28;20037;-66
2022/07/31 11:42:22;;;;;;;5.18;2.30;;;25.80;93.20;;;;;;5027929;28;20021;-64
2022/07/31 11:44:48;;;;;;;3.17;2.00;;;25.80;93.10;;;;;;5027042;28;20103;-65
2022/07/31 11:47:14;;;;;;;2.78;1.67;;;25.90;93.20;;;;;;5024407;28;20465;-64
2022/07/31 11:49:40;;;;;;;2.58;2.38;;;26.00;93.10;;;;;;5028764;28;20022;-64
2022/07/31 11:52:08;;;;;;;3.10;2.00;;;26.10;92.70;;;;;;5027248;28;20109;-65
2022/07/31 11:54:34;;;;;;;2.97;2.15;;;26.10;92.70;;;;;;5028140;28;20025;-63
2022/07/31 11:57:01;;;;;;;2.75;1.50;;;26.10;91.80;;;;;;5028048;28;20443;-64
2022/07/31 11:59:31;;;;;;;1.80;1.60;;;26.10;91.50;;;;;;5008956;28;20040;-64
2022/07/31 12:02:08;;;;;;;3.08;1.85;;;26.20;91.10;;;;;;5023835;28;20032;-64
2022/07/31 12:04:36;;;;;;;3.05;1.75;;;26.20;92.30;;;;;;5025201;28;20387;-64
2022/07/31 12:07:06;;;;;;;4.18;1.80;;;26.10;92.90;;;;;;5010001;28;20025;-64
2022/07/31 12:09:35;;;;;;;2.28;1.85;;;26.10;91.70;;;;;;5008645;28;20116;-63
2022/07/31 12:12:02;;;;;;;2.42;2.17;;;26.10;91.10;;;;;;5009617;28;20025;-64
2022/07/31 12:14:33;;;;;;;3.22;1.80;;;26.10;91.70;;;;;;5027922;28;20025;-64
2022/07/31 12:17:00;;;;;;;5.70;2.10;;;26.20;92.50;;;;;;5028325;28;20025;-63
2022/07/31 12:19:31;;;;;;;3.42;1.83;;;26.20;92.40;;;;;;5028244;28;20022;-64
2022/07/31 12:21:57;;;;;;;2.45;1.80;;;26.20;91.40;;;;;;5027330;28;20021;-63
2022/07/31 12:24:23;;;;;;;3.97;2.03;;;26.20;91.90;;;;;;5028815;28;20029;-62
2022/07/31 12:26:54;;;;;;;2.20;1.73;;;26.30;91.30;;;;;;5026125;28;20029;-64
2022/07/31 12:29:33;;;;;;;3.05;1.80;;;26.30;91.00;;;;;;5010367;28;20113;-63
2022/07/31 12:31:59;;;;;;;2.05;1.73;;;26.30;92.60;;;;;;5026945;28;20021;-63
2022/07/31 12:34:35;;;;;;;2.17;1.83;;;26.30;91.20;;;;;;5028067;28;20392;-62
2022/07/31 12:37:02;;;;;;;2.35;2.05;;;26.40;92.10;;;;;;5027456;28;20063;-63
2022/07/31 12:39:29;;;;;;;3.67;2.08;;;26.40;91.40;;;;;;5027648;28;20053;-64
2022/07/31 12:41:55;;;;;;;2.45;1.70;;;26.40;91.90;;;;;;5027251;28;20029;-64